Time;durP1;ratioP1;P1;durP2;ratioP2;P2;SDS_P1;SDS_P2;PMS_P1;PMS_P2;Temp;Humidity;BMP_temperature;BMP_pressure;BME280_temperature;BME280_humidity;BME280_pressure;Samples;Min_cycle;Max_cycle;Signal;HPM_P1;HPM_P2
2022/06/25 00:01:19;;;;;;;17.33;9.10;;;16.60;99.90;;;;;;5092523;28;20206;-73
2022/06/25 00:03:47;;;;;;;14.27;8.50;;;16.50;99.90;;;;;;5101957;28;20213;-75
2022/06/25 00:06:14;;;;;;;17.87;8.53;;;16.60;99.90;;;;;;5088771;28;20209;-75
2022/06/25 00:08:41;;;;;;;20.83;8.97;;;16.50;99.90;;;;;;5102379;28;20230;-77
2022/06/25 00:12:31;;;;;;;17.30;8.30;;;;;;;;;;5097561;28;20204;-75
2022/06/25 00:13:54;;;;;;;16.33;8.20;;;16.50;99.90;;;;;;5080746;28;20268;-78
2022/06/25 00:16:22;;;;;;;18.60;8.53;;;16.50;99.90;;;;;;5073514;28;20283;-77
2022/06/25 00:18:49;;;;;;;19.13;8.07;;;16.50;99.90;;;;;;5103661;28;20269;-76
2022/06/25 00:21:16;;;;;;;24.20;7.77;;;16.50;99.90;;;;;;5094677;28;20211;-78
2022/06/25 00:23:43;;;;;;;19.57;8.13;;;16.50;99.90;;;;;;5085020;28;20328;-75
2022/06/25 00:26:10;;;;;;;17.10;8.17;;;16.40;99.90;;;;;;5094844;28;20216;-77
2022/06/25 00:28:37;;;;;;;19.13;7.93;;;16.40;99.90;;;;;;5086112;28;20640;-75
2022/06/25 00:31:04;;;;;;;12.60;7.07;;;16.40;99.90;;;;;;5084054;28;20288;-82
2022/06/25 00:33:32;;;;;;;12.57;6.80;;;16.40;99.90;;;;;;5069910;28;20589;-75
2022/06/25 00:35:59;;;;;;;18.10;6.60;;;16.40;99.90;;;;;;5098773;28;20233;-75
2022/06/25 00:38:26;;;;;;;13.57;7.13;;;16.40;99.90;;;;;;5068059;28;20234;-76
2022/06/25 00:40:53;;;;;;;14.53;6.97;;;16.40;99.90;;;;;;5073401;28;20574;-76
2022/06/25 00:43:21;;;;;;;12.33;6.50;;;16.40;99.90;;;;;;5090083;28;20213;-78
2022/06/25 00:45:48;;;;;;;14.47;6.53;;;16.40;99.90;;;;;;5082525;28;20221;-76
2022/06/25 00:48:15;;;;;;;15.70;6.80;;;16.40;99.90;;;;;;5077776;28;20239;-77
2022/06/25 00:50:43;;;;;;;14.30;6.97;;;16.40;99.90;;;;;;5089306;28;20235;-76
2022/06/25 00:53:13;;;;;;;12.77;6.17;;;16.40;99.90;;;;;;5064854;28;20252;-76
2022/06/25 00:55:41;;;;;;;14.67;6.13;;;16.40;99.90;;;;;;5090661;28;20280;-78
2022/06/25 00:58:11;;;;;;;14.37;6.37;;;16.40;99.90;;;;;;5065917;28;20248;-76
2022/06/25 01:00:39;;;;;;;16.40;7.23;;;16.40;99.90;;;;;;5070988;28;20217;-74
2022/06/25 01:03:07;;;;;;;14.00;6.43;;;16.50;99.90;;;;;;5091164;28;20202;-79
2022/06/25 01:05:34;;;;;;;14.73;6.30;;;16.40;99.90;;;;;;5077690;28;20228;-78
2022/06/25 01:08:02;;;;;;;14.67;6.00;;;16.40;99.90;;;;;;5106503;28;20515;-77
2022/06/25 01:10:29;;;;;;;16.83;6.30;;;16.30;99.90;;;;;;5072410;28;20218;-76
2022/06/25 01:12:56;;;;;;;12.27;6.13;;;16.40;99.90;;;;;;5085873;28;20234;-79
2022/06/25 01:15:23;;;;;;;15.23;6.63;;;16.40;99.90;;;;;;5081152;28;20693;-75
2022/06/25 01:17:51;;;;;;;14.33;6.37;;;16.40;99.90;;;;;;5090801;28;20264;-76
2022/06/25 01:20:21;;;;;;;14.90;5.63;;;16.40;99.90;;;;;;5078231;28;20211;-76
2022/06/25 01:22:49;;;;;;;16.67;6.43;;;16.40;99.90;;;;;;5102401;28;20217;-76
2022/06/25 01:25:17;;;;;;;16.40;6.93;;;16.30;99.90;;;;;;5088904;28;20602;-76
2022/06/25 01:27:45;;;;;;;15.90;6.50;;;16.30;99.90;;;;;;5091160;28;20227;-75
2022/06/25 01:30:13;;;;;;;12.67;6.20;;;16.30;99.90;;;;;;5068183;28;20205;-75
2022/06/25 01:32:40;;;;;;;17.17;6.57;;;16.30;99.90;;;;;;5092800;28;20226;-77
2022/06/25 01:35:09;;;;;;;16.90;6.70;;;16.30;99.90;;;;;;5103263;28;20210;-79
2022/06/25 01:37:36;;;;;;;16.63;6.60;;;16.70;99.90;;;;;;5071061;28;20250;-75
2022/06/25 01:40:05;;;;;;;14.17;6.93;;;16.20;99.90;;;;;;5100158;28;20237;-76
2022/06/25 01:45:16;;;;;;;15.27;7.53;;;16.20;99.90;;;;;;5098483;28;20206;-76
2022/06/25 01:47:43;;;;;;;14.03;6.90;;;16.20;99.90;;;;;;5092911;28;20235;-76
2022/06/25 01:50:11;;;;;;;13.50;7.00;;;16.10;99.90;;;;;;5077086;28;20226;-75
2022/06/25 01:52:40;;;;;;;14.53;7.30;;;16.10;99.90;;;;;;5075376;28;20231;-75
2022/06/25 01:55:09;;;;;;;16.50;6.83;;;16.10;99.90;;;;;;5077753;28;20217;-76
2022/06/25 01:57:39;;;;;;;12.63;6.50;;;16.10;99.90;;;;;;5090872;28;20503;-76
2022/06/25 02:00:09;;;;;;;13.83;6.57;;;16.10;99.90;;;;;;5076599;28;20231;-76
2022/06/25 02:02:41;;;;;;;14.57;6.57;;;16.10;99.90;;;;;;5090536;28;20214;-75
2022/06/25 02:05:10;;;;;;;13.03;6.33;;;16.10;99.90;;;;;;5069897;28;20242;-77
2022/06/25 02:07:36;;;;;;;14.87;6.63;;;16.10;99.90;;;;;;5097303;28;20223;-75
2022/06/25 02:10:04;;;;;;;15.67;6.90;;;16.10;99.90;;;;;;5076387;28;20215;-78
2022/06/25 02:12:32;;;;;;;17.67;6.93;;;16.10;99.90;;;;;;5086058;28;20222;-77
2022/06/25 02:14:59;;;;;;;16.67;6.57;;;16.10;99.90;;;;;;5076628;28;20209;-76
2022/06/25 02:17:26;;;;;;;17.30;6.93;;;16.00;99.90;;;;;;5107258;28;20660;-77
2022/06/25 02:19:53;;;;;;;20.40;7.17;;;16.00;99.90;;;;;;5080159;28;20218;-76
2022/06/25 02:22:19;;;;;;;17.73;7.53;;;15.90;99.90;;;;;;5086078;28;20209;-77
2022/06/25 02:24:47;;;;;;;17.00;8.00;;;15.90;99.90;;;;;;5091500;28;20587;-76
2022/06/25 02:27:14;;;;;;;17.87;7.60;;;15.90;99.90;;;;;;5095371;28;20249;-75
2022/06/25 02:29:42;;;;;;;18.27;8.00;;;15.90;99.90;;;;;;5090991;28;20215;-79
2022/06/25 02:32:09;;;;;;;20.60;7.83;;;15.90;99.90;;;;;;5086521;28;20521;-78
2022/06/25 02:34:36;;;;;;;16.17;8.30;;;15.90;99.90;;;;;;5068365;28;20229;-76
2022/06/25 02:37:03;;;;;;;15.70;7.97;;;15.90;99.90;;;;;;5070151;28;20386;-76
2022/06/25 02:39:30;;;;;;;16.20;8.53;;;15.90;99.90;;;;;;5066720;28;20214;-76
2022/06/25 02:41:57;;;;;;;15.67;7.87;;;15.90;99.90;;;;;;5081473;28;20210;-75
2022/06/25 02:44:24;;;;;;;16.73;8.90;;;15.90;99.90;;;;;;5071579;28;20288;-76
2022/06/25 02:46:57;;;;;;;16.93;8.77;;;15.90;99.90;;;;;;5067171;28;20203;-74
2022/06/25 02:49:29;;;;;;;17.50;9.20;;;15.90;99.90;;;;;;5079978;28;20233;-76
2022/06/25 02:51:56;;;;;;;16.97;9.20;;;15.90;99.90;;;;;;5088734;28;20215;-76
2022/06/25 02:54:24;;;;;;;17.83;9.10;;;15.90;99.90;;;;;;5079184;28;20268;-76
2022/06/25 02:59:42;;;;;;;15.07;8.43;;;15.90;99.90;;;;;;5069336;28;20213;-77
2022/06/25 03:02:10;;;;;;;16.67;9.00;;;15.90;99.90;;;;;;5065935;28;20558;-75
2022/06/25 03:04:42;;;;;;;20.30;9.47;;;15.90;99.90;;;;;;5072779;28;20225;-76
2022/06/25 03:07:09;;;;;;;19.60;10.07;;;15.80;99.90;;;;;;5070385;28;20211;-76
2022/06/25 03:09:36;;;;;;;16.40;9.30;;;15.80;99.90;;;;;;5091606;28;20217;-75
2022/06/25 03:12:04;;;;;;;19.70;9.17;;;15.80;99.90;;;;;;5073485;28;20211;-76
2022/06/25 03:14:31;;;;;;;20.10;10.07;;;15.80;99.90;;;;;;5071313;28;20214;-75
2022/06/25 03:16:58;;;;;;;19.40;10.60;;;15.80;99.90;;;;;;5087574;28;20206;-75
2022/06/25 03:19:37;;;;;;;22.80;10.20;;;15.80;99.90;;;;;;5076508;28;20698;-76
2022/06/25 03:22:11;;;;;;;21.97;11.17;;;15.80;99.90;;;;;;5063316;28;20317;-75
2022/06/25 03:24:37;;;;;;;16.27;9.73;;;15.80;99.90;;;;;;5069723;28;20226;-76
2022/06/25 03:27:05;;;;;;;17.47;10.07;;;15.80;99.90;;;;;;5101731;28;20604;-76
2022/06/25 03:29:33;;;;;;;18.17;9.47;;;15.80;99.90;;;;;;5075375;28;20653;-77
2022/06/25 03:32:00;;;;;;;23.50;10.27;;;15.80;99.90;;;;;;5088825;28;20259;-79
2022/06/25 03:34:48;;;;;;;20.70;10.77;;;15.80;99.90;;;;;;5069195;28;20333;-76
2022/06/25 03:37:16;;;;;;;21.20;10.03;;;15.80;99.90;;;;;;5072556;28;20325;-75
2022/06/25 03:39:43;;;;;;;19.77;10.67;;;15.80;99.90;;;;;;5075841;28;20231;-75
2022/06/25 03:42:10;;;;;;;28.13;11.73;;;15.80;99.90;;;;;;5085473;28;20275;-76
2022/06/25 03:44:50;;;;;;;21.90;10.40;;;15.80;99.90;;;;;;5082765;28;20225;-77
2022/06/25 03:47:26;;;;;;;22.73;11.00;;;15.80;99.90;;;;;;5068109;28;20239;-75
2022/06/25 03:49:55;;;;;;;21.60;11.07;;;15.90;99.90;;;;;;5072476;28;20214;-75
2022/06/25 03:52:23;;;;;;;19.53;10.23;;;15.90;99.90;;;;;;5068022;28;20864;-76
2022/06/25 03:54:51;;;;;;;17.80;10.00;;;15.90;99.90;;;;;;5085881;28;20214;-77
2022/06/25 03:57:18;;;;;;;17.90;9.67;;;13.00;99.90;;;;;;5086002;28;20210;-75
2022/06/25 03:59:53;;;;;;;16.87;9.23;;;16.00;99.90;;;;;;5085093;28;20248;-77
2022/06/25 04:02:25;;;;;;;19.93;10.57;;;16.00;99.90;;;;;;5071780;28;20577;-77
2022/06/25 04:05:13;;;;;;;22.20;9.43;;;16.10;99.90;;;;;;5082621;28;20222;-78
2022/06/25 04:07:42;;;;;;;18.33;9.57;;;16.10;99.90;;;;;;5082696;28;20855;-78
2022/06/25 04:10:09;;;;;;;18.03;9.50;;;15.00;99.90;;;;;;5084322;28;20224;-76
2022/06/25 04:12:36;;;;;;;15.50;8.83;;;16.20;99.90;;;;;;5083359;28;20214;-77
2022/06/25 04:15:03;;;;;;;19.43;8.60;;;16.20;99.90;;;;;;5081504;28;20205;-76
2022/06/25 04:17:30;;;;;;;18.77;8.77;;;16.20;99.90;;;;;;5065516;28;20353;-79
2022/06/25 04:19:59;;;;;;;19.07;7.97;;;15.90;99.90;;;;;;5064033;28;20209;-75
2022/06/25 04:22:28;;;;;;;16.60;7.60;;;16.40;99.90;;;;;;5064759;28;20210;-78
2022/06/25 04:24:55;;;;;;;17.43;7.67;;;16.40;99.90;;;;;;5065665;28;20218;-76
2022/06/25 04:30:11;;;;;;;12.30;6.73;;;16.60;99.90;;;;;;4984623;28;20241;-77
2022/06/25 04:32:42;;;;;;;15.67;7.23;;;16.60;99.90;;;;;;5072638;28;20227;-76
2022/06/25 04:35:15;;;;;;;14.23;7.03;;;16.70;99.90;;;;;;5075242;28;20757;-75
2022/06/25 04:37:46;;;;;;;12.30;6.40;;;17.50;99.90;;;;;;5088682;28;20322;-75
2022/06/25 04:40:16;;;;;;;14.63;6.67;;;16.80;99.90;;;;;;5073316;28;20212;-76
2022/06/25 04:42:46;;;;;;;15.40;6.63;;;16.90;99.90;;;;;;5087817;28;20225;-75
2022/06/25 04:45:14;;;;;;;14.97;6.10;;;17.00;99.90;;;;;;5074084;28;20646;-78
2022/06/25 04:47:53;;;;;;;13.83;6.10;;;17.10;99.90;;;;;;5074720;28;20234;-75
2022/06/25 04:50:43;;;;;;;13.80;5.97;;;17.20;99.90;;;;;;5056478;28;20273;-76
2022/06/25 04:53:11;;;;;;;11.77;5.77;;;17.30;99.90;;;;;;5071387;28;20230;-76
2022/06/25 04:55:39;;;;;;;10.37;5.33;;;17.40;99.90;;;;;;5093576;28;20213;-75
2022/06/25 04:58:07;;;;;;;12.77;5.37;;;17.60;99.90;;;;;;5074411;28;20763;-75
2022/06/25 05:01:09;;;;;;;12.40;5.47;;;17.60;99.90;;;;;;5029470;28;21221;-81
2022/06/25 05:03:36;;;;;;;14.63;5.60;;;17.80;99.90;;;;;;5086243;28;20727;-76
2022/06/25 05:06:12;;;;;;;13.77;5.30;;;17.90;99.90;;;;;;5082579;28;20342;-77
2022/06/25 05:08:40;;;;;;;14.50;5.87;;;18.70;99.90;;;;;;5074237;28;20240;-79
2022/06/25 05:11:07;;;;;;;12.70;5.40;;;18.10;99.90;;;;;;5072497;28;20340;-77
2022/06/25 05:13:34;;;;;;;11.77;4.80;;;18.20;99.90;;;;;;5071360;28;20309;-77
2022/06/25 05:16:02;;;;;;;10.17;5.03;;;18.30;99.90;;;;;;5090202;28;20203;-77
2022/06/25 05:18:28;;;;;;;14.83;6.07;;;18.40;99.90;;;;;;5088750;28;20231;-75
2022/06/25 05:20:55;;;;;;;13.17;5.50;;;18.50;99.90;;;;;;5090050;28;20211;-79
2022/06/25 05:23:22;;;;;;;12.83;4.83;;;18.60;99.90;;;;;;5090827;28;20218;-77
2022/06/25 05:25:52;;;;;;;14.33;5.03;;;18.80;99.90;;;;;;5071318;28;20303;-77
2022/06/25 05:28:19;;;;;;;11.30;4.70;;;18.90;99.90;;;;;;5071019;28;20231;-76
2022/06/25 05:30:47;;;;;;;9.83;4.90;;;19.10;99.90;;;;;;5079244;28;20290;-81
2022/06/25 05:33:14;;;;;;;9.97;4.90;;;19.30;99.90;;;;;;5071557;28;20861;-75
2022/06/25 05:35:42;;;;;;;9.93;4.57;;;19.70;99.90;;;;;;5077189;28;20216;-79
2022/06/25 05:38:09;;;;;;;10.40;4.23;;;21.10;99.90;;;;;;5089324;28;20292;-74
2022/06/25 05:40:37;;;;;;;12.03;3.90;;;22.60;99.90;;;;;;5089057;28;20206;-75
2022/06/25 05:43:05;;;;;;;8.77;3.83;;;24.10;99.90;;;;;;5089433;28;20480;-75
2022/06/25 05:45:33;;;;;;;13.77;4.00;;;25.50;99.90;;;;;;5070993;28;20210;-77
2022/06/25 05:48:00;;;;;;;11.53;3.77;;;26.90;99.90;;;;;;5088385;28;20257;-78
2022/06/25 05:50:27;;;;;;;9.83;3.97;;;28.40;99.90;;;;;;5082465;28;20209;-76
2022/06/25 05:52:55;;;;;;;8.40;3.87;;;29.70;99.90;;;;;;5072774;28;20217;-77
2022/06/25 05:55:22;;;;;;;8.57;3.42;;;30.90;99.90;;;;;;5094896;28;20207;-81
2022/06/25 05:57:49;;;;;;;13.63;4.35;;;32.40;99.90;;;;;;5073575;28;20223;-76
2022/06/25 06:00:18;;;;;;;10.23;3.75;;;32.70;99.90;;;;;;5088088;28;20657;-76
2022/06/25 06:02:45;;;;;;;8.98;3.70;;;33.50;99.90;;;;;;5087973;28;21285;-76
2022/06/25 06:05:12;;;;;;;10.20;4.45;;;34.10;99.90;;;;;;5092036;28;20584;-77
2022/06/25 06:07:39;;;;;;;10.00;4.20;;;34.50;99.90;;;;;;5087074;28;20653;-78
2022/06/25 06:10:07;;;;;;;9.82;3.85;;;34.90;99.90;;;;;;5088894;28;20199;-76
2022/06/25 06:12:34;;;;;;;10.27;3.40;;;35.20;99.90;;;;;;5066049;28;20688;-76
2022/06/25 06:15:01;;;;;;;11.35;3.78;;;35.80;99.90;;;;;;5090455;22;20243;-79
2022/06/25 06:17:30;;;;;;;11.85;4.38;;;36.00;99.90;;;;;;5067161;28;20294;-78
2022/06/25 06:19:57;;;;;;;16.08;5.10;;;36.50;99.90;;;;;;5060175;28;20235;-78
2022/06/25 06:22:24;;;;;;;11.52;4.13;;;36.70;99.90;;;;;;5091260;28;20203;-79
2022/06/25 06:24:58;;;;;;;13.15;4.15;;;37.50;99.90;;;;;;5073763;28;20203;-80
2022/06/25 06:27:25;;;;;;;11.40;3.97;;;37.60;99.90;;;;;;5094857;28;20203;-77
2022/06/25 06:29:52;;;;;;;14.40;5.50;;;37.90;99.90;;;;;;5064562;28;20727;-78
2022/06/25 06:32:20;;;;;;;10.85;3.88;;;38.00;96.20;;;;;;5084600;28;20198;-76
2022/06/25 06:34:50;;;;;;;11.35;3.83;;;38.20;95.10;;;;;;5088608;28;20223;-80
2022/06/25 06:37:17;;;;;;;11.40;3.97;;;38.30;93.10;;;;;;5074757;28;20207;-77
2022/06/25 06:39:44;;;;;;;9.93;3.78;;;37.90;92.00;;;;;;5083514;28;20280;-77
2022/06/25 06:42:12;;;;;;;10.05;3.92;;;38.00;88.30;;;;;;5097323;28;20206;-74
2022/06/25 06:44:42;;;;;;;15.30;4.10;;;38.20;89.60;;;;;;5072704;28;20286;-77
2022/06/25 06:47:09;;;;;;;13.55;4.75;;;38.60;85.10;;;;;;5074856;28;20216;-77
2022/06/25 06:49:38;;;;;;;12.25;4.40;;;38.80;90.00;;;;;;5069752;28;20232;-78
2022/06/25 06:52:07;;;;;;;12.85;4.20;;;38.90;82.90;;;;;;5082065;28;20219;-77
2022/06/25 06:54:34;;;;;;;12.73;4.18;;;39.00;80.00;;;;;;5091905;28;20261;-77
2022/06/25 06:57:01;;;;;;;17.17;5.15;;;39.00;77.80;;;;;;5094130;28;20212;-76
2022/06/25 06:59:28;;;;;;;9.80;3.50;;;39.10;78.10;;;;;;5090513;28;20262;-77
2022/06/25 07:01:55;;;;;;;8.73;3.50;;;39.20;76.70;;;;;;5076432;28;20199;-75
2022/06/25 07:04:25;;;;;;;14.82;3.65;;;39.30;75.00;;;;;;5086690;28;20211;-75
2022/06/25 07:06:52;;;;;;;10.13;3.53;;;39.40;73.40;;;;;;5075168;28;20286;-75
2022/06/25 07:09:20;;;;;;;9.80;3.63;;;39.70;73.20;;;;;;5092992;28;20718;-75
2022/06/25 07:11:48;;;;;;;9.00;3.53;;;39.70;71.60;;;;;;5078374;28;20280;-74
2022/06/25 07:14:15;;;;;;;10.82;3.50;;;38.80;70.00;;;;;;5081542;28;20274;-75
2022/06/25 07:16:43;;;;;;;13.32;4.20;;;38.20;71.10;;;;;;5092781;28;20205;-73
2022/06/25 07:19:10;;;;;;;10.57;3.92;;;38.20;71.90;;;;;;5077944;28;20211;-75
2022/06/25 07:21:39;;;;;;;11.65;4.00;;;38.20;72.30;;;;;;5097983;28;20192;-74
2022/06/25 07:24:06;;;;;;;11.85;4.18;;;38.60;71.80;;;;;;5072446;28;20207;-74
2022/06/25 07:26:35;;;;;;;9.57;3.97;;;39.00;71.90;;;;;;5074251;28;20199;-74
2022/06/25 07:29:03;;;;;;;10.13;3.90;;;39.30;71.70;;;;;;5091996;28;20285;-74
2022/06/25 07:31:42;;;;;;;10.23;3.67;;;39.70;68.50;;;;;;5074910;28;20235;-75
2022/06/25 07:34:15;;;;;;;13.32;4.57;;;39.50;69.60;;;;;;5070775;28;20218;-75
2022/06/25 07:36:43;;;;;;;9.68;3.75;;;39.50;67.60;;;;;;5068379;28;20620;-73
2022/06/25 07:39:10;;;;;;;11.68;4.38;;;39.60;66.80;;;;;;5071325;28;20214;-72
2022/06/25 07:41:39;;;;;;;11.10;4.30;;;39.60;67.10;;;;;;5085687;28;20200;-73
2022/06/25 07:44:06;;;;;;;9.80;4.25;;;39.60;65.10;;;;;;5066722;28;20199;-73
2022/06/25 07:46:33;;;;;;;12.52;4.38;;;39.40;65.60;;;;;;5068135;28;20212;-72
2022/06/25 07:49:00;;;;;;;13.82;4.30;;;39.30;65.40;;;;;;5066609;28;20207;-71
2022/06/25 07:54:13;;;;;;;16.38;5.13;;;38.60;64.60;;;;;;5082855;28;20755;-73
2022/06/25 07:56:41;;;;;;;13.77;4.47;;;37.80;65.60;;;;;;5064991;28;20295;-73
2022/06/25 07:59:08;;;;;;;15.15;4.68;;;;;;;;;;5079646;28;20292;-73
2022/06/25 08:01:35;;;;;;;12.68;4.03;;;37.20;66.60;;;;;;5068504;28;20296;-73
2022/06/25 08:04:03;;;;;;;12.20;4.10;;;37.40;66.80;;;;;;5078427;28;20200;-72
2022/06/25 08:06:30;;;;;;;13.55;4.50;;;37.50;66.90;;;;;;5083156;28;20214;-73
2022/06/25 08:08:58;;;;;;;8.77;3.63;;;37.20;66.80;;;;;;5073735;28;20200;-75
2022/06/25 08:11:25;;;;;;;15.25;5.22;;;36.80;67.00;;;;;;5078310;28;20284;-74
2022/06/25 08:13:54;;;;;;;18.17;5.00;;;36.20;67.10;;;;;;5084726;28;20912;-75
2022/06/25 08:16:24;;;;;;;11.90;4.05;;;35.70;67.60;;;;;;5094838;28;20259;-75
2022/06/25 08:18:51;;;;;;;16.50;5.07;;;35.20;68.80;;;;;;5094211;28;20206;-75
2022/06/25 08:21:18;;;;;;;16.90;4.35;;;35.10;68.50;;;;;;5093747;28;20222;-75
2022/06/25 08:23:45;;;;;;;12.13;4.30;;;35.10;68.80;;;;;;5094020;28;20203;-74
2022/06/25 08:26:12;;;;;;;15.23;4.07;;;35.40;68.20;;;;;;5094522;28;20195;-74
2022/06/25 08:28:40;;;;;;;16.20;4.57;;;35.70;68.70;;;;;;5093884;28;20642;-74
2022/06/25 08:31:08;;;;;;;13.50;4.43;;;35.70;66.70;;;;;;5092141;28;20226;-75
2022/06/25 08:33:35;;;;;;;12.85;3.92;;;35.40;67.00;;;;;;5093660;28;20236;-74
2022/06/25 08:36:02;;;;;;;12.68;4.22;;;34.80;67.60;;;;;;5112436;28;20194;-74
2022/06/25 08:38:29;;;;;;;13.95;3.97;;;34.10;67.60;;;;;;5093731;28;20311;-74
2022/06/25 08:41:00;;;;;;;16.55;4.47;;;33.30;68.20;;;;;;5092543;28;20238;-75
2022/06/25 08:43:30;;;;;;;18.60;5.30;;;33.30;68.80;;;;;;5096843;28;20184;-74
2022/06/25 08:45:57;;;;;;;15.23;4.20;;;32.90;69.50;;;;;;5075237;28;20208;-74
2022/06/25 08:48:32;;;;;;;16.52;4.55;;;32.80;70.80;;;;;;5072697;28;20257;-74
2022/06/25 08:51:01;;;;;;;13.88;4.22;;;33.10;70.50;;;;;;5091347;28;20230;-74
2022/06/25 08:53:32;;;;;;;13.65;3.90;;;33.20;69.60;;;;;;5075683;28;20241;-74
2022/06/25 08:56:01;;;;;;;13.38;3.88;;;33.30;68.00;;;;;;5073062;28;20302;-74
2022/06/25 08:58:29;;;;;;;12.32;3.72;;;33.30;68.20;;;;;;5087337;28;20208;-74
2022/06/25 09:00:56;;;;;;;16.08;4.88;;;32.90;66.90;;;;;;5074514;28;20765;-73
2022/06/25 09:03:25;;;;;;;15.63;4.50;;;32.40;68.00;;;;;;5091041;28;20215;-74
2022/06/25 09:05:53;;;;;;;12.45;3.92;;;32.00;69.20;;;;;;5071283;28;20212;-74
2022/06/25 09:08:21;;;;;;;16.17;4.65;;;31.80;69.90;;;;;;5075420;28;20227;-74
2022/06/25 09:10:54;;;;;;;15.65;4.43;;;31.80;69.40;;;;;;5077389;28;20285;-74
2022/06/25 09:13:25;;;;;;;13.88;4.25;;;32.00;70.40;;;;;;5075935;28;20211;-74
2022/06/25 09:15:52;;;;;;;12.57;4.13;;;32.20;70.30;;;;;;5076533;28;20622;-73
2022/06/25 09:18:20;;;;;;;14.20;4.43;;;32.50;70.70;;;;;;5075920;28;20701;-74
2022/06/25 09:20:59;;;;;;;12.80;3.65;;;32.90;70.70;;;;;;5092389;28;20228;-74
2022/06/25 09:23:27;;;;;;;13.35;4.18;;;33.10;70.70;;;;;;5076236;28;20687;-74
2022/06/25 09:26:03;;;;;;;13.52;3.97;;;33.40;69.30;;;;;;5088662;28;20226;-74
2022/06/25 09:28:32;;;;;;;14.98;4.65;;;33.30;68.50;;;;;;5073705;28;20288;-74
2022/06/25 09:30:59;;;;;;;13.25;4.28;;;33.50;69.20;;;;;;5077694;28;20242;-74
2022/06/25 09:33:27;;;;;;;16.05;4.70;;;33.50;68.20;;;;;;5075672;28;20206;-74
2022/06/25 09:35:55;;;;;;;14.90;4.55;;;33.30;67.60;;;;;;5075738;28;20284;-74
2022/06/25 09:38:24;;;;;;;15.70;4.68;;;33.70;68.70;;;;;;5077412;28;20679;-74
2022/06/25 09:40:53;;;;;;;13.73;4.55;;;33.70;67.90;;;;;;5094643;28;20229;-72
2022/06/25 09:43:22;;;;;;;13.38;4.38;;;33.80;67.10;;;;;;5075475;28;20216;-73
2022/06/25 09:45:51;;;;;;;14.48;4.47;;;34.10;67.50;;;;;;5083579;28;20206;-73
2022/06/25 09:48:20;;;;;;;16.30;4.93;;;34.30;66.30;;;;;;5074497;28;20297;-73
2022/06/25 09:51:05;;;;;;;17.60;4.22;;;34.40;65.00;;;;;;5093372;28;20317;-73
2022/06/25 09:53:35;;;;;;;12.20;4.00;;;34.30;65.50;;;;;;5077391;28;20291;-73
2022/06/25 09:56:06;;;;;;;14.77;4.38;;;33.90;66.30;;;;;;5093097;28;20934;-73
2022/06/25 09:58:34;;;;;;;12.90;3.88;;;33.80;66.20;;;;;;5074470;28;20207;-73
2022/06/25 10:01:03;;;;;;;14.18;4.50;;;33.70;65.50;;;;;;5075309;28;21039;-73
2022/06/25 10:03:31;;;;;;;15.45;4.50;;;33.50;65.90;;;;;;5081942;28;20215;-73
2022/06/25 10:06:00;;;;;;;15.27;3.95;;;33.30;65.60;;;;;;5073565;28;20199;-73
2022/06/25 10:08:28;;;;;;;17.08;4.82;;;32.90;65.40;;;;;;5073214;28;21471;-73
2022/06/25 10:10:58;;;;;;;20.90;5.30;;;32.10;65.80;;;;;;5075168;28;20244;-73
2022/06/25 10:13:25;;;;;;;18.70;5.07;;;31.60;66.90;;;;;;5075631;28;20217;-74
2022/06/25 10:15:55;;;;;;;15.60;4.43;;;31.10;68.50;;;;;;5075131;28;20665;-74
2022/06/25 10:18:25;;;;;;;19.00;4.93;;;30.60;69.70;;;;;;5074734;28;20217;-73
2022/06/25 10:20:53;;;;;;;19.93;4.80;;;30.10;69.40;;;;;;5078877;28;20224;-73
2022/06/25 10:23:22;;;;;;;17.47;4.60;;;29.90;70.80;;;;;;5076142;28;20213;-74
2022/06/25 10:25:50;;;;;;;11.90;3.93;;;29.70;71.10;;;;;;5077664;28;20218;-74
2022/06/25 10:28:28;;;;;;;13.07;3.97;;;29.60;71.60;;;;;;5077023;28;20281;-74
2022/06/25 10:31:08;;;;;;;11.00;3.23;;;29.50;71.50;;;;;;5076132;28;20225;-75
2022/06/25 10:33:51;;;;;;;12.67;3.53;;;29.50;71.10;;;;;;5074515;28;20219;-74
2022/06/25 10:36:18;;;;;;;11.30;3.20;;;29.50;71.70;;;;;;5070803;28;20578;-73
2022/06/25 10:38:45;;;;;;;12.53;3.70;;;29.40;71.90;;;;;;5088183;28;20218;-71
2022/06/25 10:43:59;;;;;;;12.63;3.80;;;29.10;72.30;;;;;;5073787;28;20200;-72
2022/06/25 10:46:29;;;;;;;10.87;3.20;;;28.90;72.90;;;;;;5080179;28;20198;-73
2022/06/25 10:49:18;;;;;;;12.43;3.30;;;28.80;73.40;;;;;;5084322;28;20291;-72
2022/06/25 10:51:47;;;;;;;;;;;28.60;73.60;;;;;;5054447;28;20150;-71
2022/06/25 10:54:35;;;;;;;;;;;28.50;74.50;;;;;;5089309;28;19935;-73
2022/06/25 10:57:04;;;;;;;;;;;28.30;74.90;;;;;;5073368;28;19927;-72
2022/06/25 10:59:46;;;;;;;;;;;28.10;74.90;;;;;;5072514;28;19932;-73
2022/06/25 11:02:24;;;;;;;;;;;28.10;76.30;;;;;;5091226;28;19924;-74
2022/06/25 11:04:53;;;;;;;;;;;28.10;76.10;;;;;;5072348;28;20293;-74
2022/06/25 11:07:20;;;;;;;;;;;28.00;76.20;;;;;;5067586;28;20360;-74
2022/06/25 11:09:57;;;;;;;;;;;28.00;77.00;;;;;;5085908;28;20365;-74
2022/06/25 11:12:25;;;;;;;;;;;28.10;76.70;;;;;;5079138;28;19928;-72
2022/06/25 11:14:59;;;;;;;;;;;28.20;77.10;;;;;;5074687;28;19928;-73
2022/06/25 11:17:31;;;;;;;;;;;28.30;76.90;;;;;;5090991;28;19924;-73
2022/06/25 11:20:08;;;;;;;;;;;28.40;76.30;;;;;;5110581;28;20402;-74
2022/06/25 11:22:45;;;;;;;;;;;28.40;77.30;;;;;;5076704;28;19994;-73
2022/06/25 11:30:44;;;;;;;;;;;29.30;76.60;;;;;;5081309;28;19976;-73
2022/06/25 11:33:11;;;;;;;;;;;29.60;76.50;;;;;;5087546;28;19928;-73
2022/06/25 11:35:39;;;;;;;;;;;29.90;74.90;;;;;;5082420;28;19935;-72
2022/06/25 11:38:13;;;;;;;;;;;29.90;74.40;;;;;;5065442;28;20557;-72
2022/06/25 11:40:40;;;;;;;;;;;29.90;74.40;;;;;;5071257;28;19982;-73
2022/06/25 11:43:07;;;;;;;;;;;30.00;74.50;;;;;;5058896;28;20512;-73
2022/06/25 11:45:48;;;;;;;;;;;29.90;74.70;;;;;;5075205;28;20328;-73
2022/06/25 11:48:15;;;;;;;;;;;29.80;74.70;;;;;;5059211;28;19935;-73
2022/06/25 11:50:42;;;;;;;;;;;29.80;74.70;;;;;;5067230;28;19931;-72
2022/06/25 11:53:09;;;;;;;;;;;29.80;74.70;;;;;;5074739;28;19924;-73
2022/06/25 11:55:38;;;;;;;;;;;29.80;74.20;;;;;;5080788;28;20431;-72
2022/06/25 11:58:05;;;;;;;;;;;29.70;73.90;;;;;;5054101;28;19939;-73
2022/06/25 12:00:35;;;;;;;;;;;29.60;74.40;;;;;;5076228;28;19928;-74
2022/06/25 12:03:04;;;;;;;;;;;29.70;75.10;;;;;;5062718;28;19995;-75
2022/06/25 12:05:31;;;;;;;;;;;29.80;75.00;;;;;;5074508;28;19936;-75
2022/06/25 12:07:58;;;;;;;;;;;29.80;74.90;;;;;;5086495;28;20125;-75
2022/06/25 12:10:25;;;;;;;;;;;30.00;74.70;;;;;;5070922;28;19928;-75
2022/06/25 12:12:52;;;;;;;;;;;30.10;74.40;;;;;;5087645;28;19973;-75
2022/06/25 12:15:20;;;;;;;;;;;30.30;74.50;;;;;;5069960;28;19928;-75
2022/06/25 12:17:47;;;;;;;;;;;30.40;74.30;;;;;;5086652;28;19928;-75
2022/06/25 12:20:15;;;;;;;;;;;30.60;74.40;;;;;;5079516;28;20575;-75
2022/06/25 12:22:45;;;;;;;;;;;30.60;74.20;;;;;;5107802;28;19935;-74
2022/06/25 12:25:13;;;;;;;;;;;30.90;74.20;;;;;;5082624;28;20380;-74
2022/06/25 12:27:47;;;;;;;;;;;31.10;74.40;;;;;;5089002;28;19978;-74
2022/06/25 12:30:14;;;;;;;;;;;31.40;73.80;;;;;;5086788;28;19950;-74
2022/06/25 12:32:42;;;;;;;;;;;31.40;72.70;;;;;;5086105;28;20061;-74
2022/06/25 12:35:20;;;;;;;;;;;31.20;72.80;;;;;;5074290;28;20437;-74
2022/06/25 12:38:01;;;;;;;;;;;31.00;72.80;;;;;;5078707;28;19989;-75
2022/06/25 12:40:28;;;;;;;;;;;30.90;72.50;;;;;;5089901;28;20371;-75
2022/06/25 12:42:55;;;;;;;;;;;30.90;73.20;;;;;;5089010;28;19927;-75
2022/06/25 12:45:22;;;;;;;;;;;30.90;73.50;;;;;;5076529;28;19928;-75
2022/06/25 12:47:49;;;;;;;;;;;30.90;74.00;;;;;;5076848;28;20430;-75
2022/06/25 12:50:25;;;;;;;;;;;30.90;72.50;;;;;;5076160;28;20380;-75
2022/06/25 12:52:55;;;;;;;;;;;30.90;73.00;;;;;;5084649;28;19936;-75
2022/06/25 12:55:24;;;;;;;;;;;30.80;73.00;;;;;;5064919;28;19924;-74
2022/06/25 12:57:51;;;;;;;;;;;30.70;73.50;;;;;;5054610;28;19928;-71
2022/06/25 13:00:20;;;;;;;;;;;30.60;73.80;;;;;;5055376;28;19982;-72
2022/06/25 13:02:47;;;;;;;;;;;30.50;73.90;;;;;;5071656;28;19928;-72
2022/06/25 13:05:14;;;;;;;;;;;30.60;74.10;;;;;;5054601;28;20445;-72
2022/06/25 13:07:43;;;;;;;;;;;30.80;74.10;;;;;;5053592;28;19924;-72
2022/06/25 13:10:10;;;;;;;;;;;31.10;73.30;;;;;;5053998;28;20300;-72
2022/06/25 13:12:37;;;;;;;;;;;31.20;73.20;;;;;;5053690;28;20080;-72
2022/06/25 13:15:04;;;;;;;;;;;31.30;73.60;;;;;;5052842;28;19925;-70
2022/06/25 13:17:31;;;;;;;;;;;31.20;72.20;;;;;;5053289;28;19928;-72
2022/06/25 13:19:58;;;;;;;;;;;31.30;72.50;;;;;;5053252;28;19937;-72
2022/06/25 13:22:25;;;;;;;;;;;31.30;71.70;;;;;;5052913;28;20557;-72
2022/06/25 13:24:54;;;;;;;;;;;31.10;71.20;;;;;;5053404;28;20074;-72